Main page
METAR-TAF:

METAR-TAF

Airports :

Minneapolis–Saint Paul International Airport

Minneapolis, Minnesota, United States

latitude: 44-52-59N, longitude: 093-13-44W, elevation: 256 m

Current weather observation

The report was made 45 minutes ago, at 02:53 UTC
Calm wind
Temperature 28°C
Humidity 42%
Pressure 1007 hPa
Visibility: 16.1 km
Clear sky

METAR: KMSP 270253Z 00000KT 10SM CLR 28/14 A2973 RMK AO2 SLP059 T02830144 53013 $

Time: 22:38 (03:38 UTC)

Forecast

The report was made 1 hour and 2 minutes ago, at 02:36 UTC
Forecast valid from 27 at 03 UTC to 28 at 06 UTC
Wind 2 kt from variable directions
Visibility: 10 km
Clear sky
From 27 at 1200 UTC
Wind 5 kt from the South/Southeast
Visibility: 10 km
Clear sky
From 27 at 2000 UTC
Wind 8 kt from the South with gusts up to 13 kt
Visibility: 10 km
Clear sky

TAF: KMSP 270236Z 2703/2806 VRB02KT P6SM SKC FM271200 15005KT P6SM SKC FM272000 18008G13KT P6SM SKC

Weather observations and forecasts of more than 4000 airports (METAR and TAF reports).

The available stations are represented by yellow and red dots on the map.

Hover mouse over dot to see the name of the station.

Then click to see weather observations and forecasts.

To change the map : click on the green buttons with a black cross to zoom in, on the green button with a dash to zoom out, or on the green arrows for adjacent maps.


METAR-TAF: